Time;durP1;ratioP1;P1;durP2;ratioP2;P2;SDS_P1;SDS_P2;PMS_P1;PMS_P2;Temp;Humidity;BMP_temperature;BMP_pressure;BME280_temperature;BME280_humidity;BME280_pressure;Samples;Min_cycle;Max_cycle;Signal;HPM_P1;HPM_P2
2023/08/23 04:09:36;;;;;;;13.70;11.90;;;;;;;23.52;87.84;100456.44;5607137;31;76622;-56
2023/08/23 04:12:42;;;;;;;13.80;11.30;;;;;;;23.52;87.84;100456.44;5583823;31;33307;-56
2023/08/23 04:15:45;;;;;;;14.80;11.68;;;;;;;23.03;93.28;100465.34;5583991;31;33359;-57
2023/08/23 04:18:47;;;;;;;14.32;11.73;;;;;;;23.08;90.87;100454.13;5583966;32;33781;-56
2023/08/23 04:21:50;;;;;;;12.23;10.45;;;;;;;23.17;93.47;100460.13;5583939;31;33878;-56
2023/08/23 04:24:52;;;;;;;15.52;10.93;;;;;;;23.14;95.50;100460.84;5583749;31;33317;-57
2023/08/23 04:27:54;;;;;;;13.57;11.10;;;;;;;23.10;94.26;100449.06;5583832;32;33642;-57
2023/08/23 04:31:01;;;;;;;12.02;10.80;;;;;;;23.21;92.24;100450.06;5567481;31;34162;-57
2023/08/23 04:34:04;;;;;;;13.13;10.73;;;;;;;23.25;91.08;100447.37;5564054;32;33466;-57
2023/08/23 04:37:08;;;;;;;13.23;11.32;;;;;;;23.31;87.99;100451.41;5564145;32;32785;-56
2023/08/23 04:40:10;;;;;;;14.52;11.43;;;;;;;23.43;89.06;100447.66;5564199;32;33576;-57
2023/08/23 04:43:13;;;;;;;16.27;10.50;;;;;;;23.42;90.99;100452.34;5564187;32;34275;-57
2023/08/23 04:46:16;;;;;;;12.37;11.07;;;;;;;23.49;85.83;100445.44;5564124;32;33797;-57
2023/08/23 04:49:18;;;;;;;11.85;10.60;;;;;;;23.52;86.86;100450.97;5563948;32;33293;-57
2023/08/23 04:52:21;;;;;;;12.35;10.85;;;;;;;23.59;83.94;100453.81;5563307;32;33325;-57
2023/08/23 04:55:23;;;;;;;12.65;10.35;;;;;;;23.66;84.33;100447.66;5564034;32;34340;-57
2023/08/23 04:58:30;;;;;;;14.80;10.57;;;;;;;23.66;90.01;100448.44;5563143;32;33587;-56
2023/08/23 05:01:33;;;;;;;16.27;11.20;;;;;;;23.64;92.49;100460.91;5564717;32;33386;-57
2023/08/23 05:04:36;;;;;;;15.38;11.40;;;;;;;23.63;92.08;100457.37;5583185;32;34369;-56
2023/08/23 05:07:39;;;;;;;15.32;11.20;;;;;;;23.68;87.18;100450.84;5566648;32;33595;-57
2023/08/23 05:10:41;;;;;;;12.90;10.88;;;;;;;23.77;87.68;100448.62;5563644;32;34444;-56
2023/08/23 05:13:44;;;;;;;15.30;10.73;;;;;;;23.73;89.57;100445.06;5563759;32;33650;-57
2023/08/23 05:16:48;;;;;;;22.23;11.98;;;;;;;23.80;91.06;100447.88;5563291;32;34359;-57
2023/08/23 05:19:51;;;;;;;14.05;11.45;;;;;;;23.83;89.44;100447.16;5555666;32;33574;-57
2023/08/23 05:22:53;;;;;;;11.98;10.77;;;;;;;23.95;91.26;100445.38;5550838;32;33082;-57
2023/08/23 05:25:56;;;;;;;15.18;10.55;;;;;;;24.04;89.34;100445.88;5550472;32;33236;-56
2023/08/23 05:28:58;;;;;;;13.05;11.70;;;;;;;24.14;90.35;100442.53;5550623;32;34388;-57
2023/08/23 05:32:01;;;;;;;16.33;11.02;;;;;;;24.25;89.79;100450.87;5550180;32;33254;-57
2023/08/23 05:35:04;;;;;;;14.38;11.55;;;;;;;24.35;83.83;100442.03;5550257;32;33665;-57
2023/08/23 05:38:09;;;;;;;;;;;;;;;24.51;82.32;100445.38;5550619;32;34527;-57
2023/08/23 05:41:12;;;;;;;16.30;11.57;;;;;;;24.68;88.15;100441.28;5550623;32;33429;-57
2023/08/23 05:44:15;;;;;;;23.62;11.80;;;;;;;24.83;83.76;100443.03;5549980;32;34284;-56
2023/08/23 05:47:17;;;;;;;19.33;11.20;;;;;;;24.95;81.77;100446.66;5550278;32;33664;-58
2023/08/23 05:50:20;;;;;;;15.10;11.20;;;;;;;24.98;80.73;100446.69;5549754;32;33534;-57
2023/08/23 05:53:23;;;;;;;24.58;11.32;;;;;;;25.08;81.01;100450.69;5550375;32;33603;-56
2023/08/23 05:56:25;;;;;;;18.87;10.45;;;;;;;25.21;84.48;100443.81;5549197;32;33250;-57
2023/08/23 05:59:28;;;;;;;19.42;12.02;;;;;;;25.42;83.47;100443.19;5554013;32;33798;-57
2023/08/23 06:02:31;;;;;;;24.50;12.40;;;;;;;25.46;81.82;100443.22;5569469;32;33445;-57
2023/08/23 06:05:33;;;;;;;15.50;13.73;;;;;;;25.51;80.62;100442.88;5569632;32;34381;-57
2023/08/23 06:08:36;;;;;;;17.92;13.52;;;;;;;25.57;82.64;100438.62;5568892;32;31754;-57
2023/08/23 06:11:38;;;;;;;16.67;12.35;;;;;;;25.63;80.30;100436.28;5569265;32;33517;-56
2023/08/23 06:14:40;;;;;;;13.00;11.60;;;;;;;25.73;80.95;100439.12;5569079;32;33745;-57
2023/08/23 06:17:43;;;;;;;22.20;11.80;;;;;;;25.86;80.42;100444.31;5568670;32;33569;-57
2023/08/23 06:20:49;;;;;;;15.15;11.12;;;;;;;25.97;80.43;100445.19;5549864;32;34373;-57
2023/08/23 06:23:51;;;;;;;22.10;11.88;;;;;;;26.10;80.66;100443.69;5561306;32;34400;-57
2023/08/23 06:26:59;;;;;;;15.48;10.90;;;;;;;26.22;80.09;100445.31;5549731;32;32269;-57
2023/08/23 06:30:03;;;;;;;18.12;11.25;;;;;;;26.28;77.00;100443.00;5547920;32;32765;-57
2023/08/23 06:33:08;;;;;;;14.55;10.68;;;;;;;26.38;76.95;100447.75;5548683;32;33592;-57
2023/08/23 06:36:13;;;;;;;12.30;10.32;;;;;;;26.43;76.09;100447.41;5549394;32;33823;-57
2023/08/23 06:39:17;;;;;;;15.25;10.35;;;;;;;26.48;74.10;100445.06;5558088;32;34335;-57
2023/08/23 06:42:36;;;;;;;13.82;10.40;;;;;;;26.56;73.93;100459.66;5568302;32;33752;-57
2023/08/23 06:45:39;;;;;;;15.50;10.80;;;;;;;26.62;72.83;100458.13;5563530;32;33115;-56
2023/08/23 06:48:42;;;;;;;13.07;10.40;;;;;;;26.70;73.20;100450.66;5566892;32;34964;-57
2023/08/23 06:51:45;;;;;;;16.67;10.45;;;;;;;26.78;73.90;100448.72;5562211;32;34230;-57
2023/08/23 06:54:48;;;;;;;14.87;11.02;;;;;;;26.83;73.45;100451.88;5565265;32;32400;-58
2023/08/23 06:57:50;;;;;;;20.20;13.55;;;;;;;26.96;73.33;100448.78;5568855;32;33960;-57
2023/08/23 07:00:56;;;;;;;15.27;12.68;;;;;;;27.08;73.10;100453.87;5567976;32;33991;-57
2023/08/23 07:03:59;;;;;;;22.80;14.20;;;;;;;27.08;72.70;100460.16;5567208;32;32105;-57
2023/08/23 07:07:02;;;;;;;18.75;12.48;;;;;;;27.11;73.26;100456.63;5567881;32;33047;-57
2023/08/23 07:10:06;;;;;;;17.75;11.98;;;;;;;27.16;73.40;100463.78;5566412;32;33609;-59
2023/08/23 07:13:29;;;;;;;13.95;12.00;;;;;;;27.27;74.10;100461.03;5565302;32;34386;-57
2023/08/23 07:16:31;;;;;;;12.48;11.27;;;;;;;27.30;73.65;100461.03;5566484;32;33550;-58
2023/08/23 07:19:34;;;;;;;13.73;10.75;;;;;;;27.37;72.82;100463.00;5568181;32;34244;-57
2023/08/23 07:22:37;;;;;;;17.10;11.90;;;;;;;27.43;72.27;100464.19;5567938;32;33221;-58
2023/08/23 07:25:42;;;;;;;12.70;11.23;;;;;;;27.40;70.36;100473.22;5568194;32;33574;-57
2023/08/23 07:28:48;;;;;;;12.45;11.02;;;;;;;27.36;70.29;100459.47;5566814;32;34027;-57
2023/08/23 07:31:51;;;;;;;14.55;11.57;;;;;;;27.44;70.78;100464.97;5565832;32;33587;-57
2023/08/23 07:34:54;;;;;;;15.35;10.80;;;;;;;27.50;72.13;100475.19;5565434;32;32417;-57
2023/08/23 07:37:58;;;;;;;11.07;9.98;;;;;;;27.56;72.50;100470.87;5566820;32;33169;-57
2023/08/23 07:41:03;;;;;;;17.23;10.35;;;;;;;27.62;68.56;100468.50;5567435;31;32783;-57
2023/08/23 07:44:11;;;;;;;13.35;10.73;;;;;;;27.71;69.84;100468.09;5563337;32;32585;-57
2023/08/23 07:47:13;;;;;;;11.88;9.88;;;;;;;27.79;69.23;100472.47;5564659;32;33569;-57
2023/08/23 07:50:15;;;;;;;13.90;10.45;;;;;;;27.88;69.41;100467.31;5559908;32;34381;-57
2023/08/23 07:53:18;;;;;;;11.80;10.32;;;;;;;27.93;68.62;100472.44;5548662;32;33043;-57
2023/08/23 07:56:20;;;;;;;13.93;11.50;;;;;;;27.98;69.00;100477.56;5562721;32;33667;-57
2023/08/23 07:59:22;;;;;;;12.37;10.15;;;;;;;28.05;68.70;100474.78;5566616;32;33839;-57
2023/08/23 08:02:25;;;;;;;14.85;11.63;;;;;;;28.12;69.80;100478.72;5566571;32;33636;-57
2023/08/23 08:05:30;;;;;;;12.23;10.88;;;;;;;28.14;69.33;100474.34;5567742;32;33703;-57
2023/08/23 08:08:33;;;;;;;13.90;11.27;;;;;;;28.19;69.50;100467.66;5561533;32;34354;-57
2023/08/23 08:11:35;;;;;;;16.00;11.43;;;;;;;28.22;69.90;100473.16;5548634;32;34316;-57
2023/08/23 08:14:38;;;;;;;15.85;11.95;;;;;;;28.26;70.15;100471.16;5547956;32;34220;-57
2023/08/23 08:17:40;;;;;;;15.98;10.85;;;;;;;28.25;69.81;100469.59;5563248;32;33641;-58
2023/08/23 08:20:46;;;;;;;16.23;10.25;;;;;;;28.31;69.74;100478.22;5567776;32;33646;-57
2023/08/23 08:23:48;;;;;;;17.02;11.15;;;;;;;28.29;68.28;100478.66;5568145;32;34358;-57
2023/08/23 08:26:50;;;;;;;14.45;10.68;;;;;;;28.37;68.68;100481.37;5567876;32;33455;-57
2023/08/23 08:29:53;;;;;;;14.48;10.30;;;;;;;28.38;68.06;100475.47;5567670;32;33906;-57
2023/08/23 08:32:55;;;;;;;17.98;10.25;;;;;;;28.43;68.82;100474.28;5567539;32;33254;-58
2023/08/23 08:35:58;;;;;;;15.27;11.20;;;;;;;28.44;69.05;100473.88;5567597;32;33586;-57
2023/08/23 08:39:00;;;;;;;12.75;10.90;;;;;;;28.48;68.28;100482.16;5567638;32;33587;-57
2023/08/23 08:42:03;;;;;;;16.42;11.35;;;;;;;28.52;68.52;100480.97;5553595;32;33856;-57
2023/08/23 08:45:06;;;;;;;13.10;11.55;;;;;;;28.55;68.74;100480.16;5566267;32;33815;-57
2023/08/23 08:48:09;;;;;;;14.63;11.75;;;;;;;28.63;69.16;100475.38;5567176;32;33668;-57
2023/08/23 08:51:19;;;;;;;16.25;11.55;;;;;;;28.63;68.69;100469.09;5562349;32;33466;-57
2023/08/23 08:54:23;;;;;;;15.48;12.25;;;;;;;28.68;68.59;100468.69;5566910;32;34477;-57
2023/08/23 08:57:27;;;;;;;17.87;12.20;;;;;;;28.76;68.63;100472.97;5570273;32;34429;-57
2023/08/23 09:00:31;;;;;;;15.98;11.88;;;;;;;28.74;68.26;100476.12;5569701;32;34266;-58
2023/08/23 09:03:34;;;;;;;15.93;11.70;;;;;;;28.78;67.99;100476.12;5569854;32;33602;-57
2023/08/23 09:06:38;;;;;;;12.95;11.45;;;;;;;28.96;67.84;100468.50;5568200;32;33541;-57
2023/08/23 09:09:42;;;;;;;14.87;11.88;;;;;;;29.06;67.62;100468.88;5569440;32;33699;-58
2023/08/23 09:12:45;;;;;;;12.03;10.83;;;;;;;29.02;68.48;100479.94;5569699;32;33658;-57
2023/08/23 09:15:47;;;;;;;16.65;10.65;;;;;;;29.02;67.14;100469.69;5569745;32;33689;-58
2023/08/23 09:18:50;;;;;;;15.75;11.00;;;;;;;29.11;65.30;100474.78;5569447;32;33420;-58
2023/08/23 09:21:53;;;;;;;14.02;10.60;;;;;;;29.22;65.34;100471.94;5569575;32;32875;-58
2023/08/23 09:24:55;;;;;;;11.02;9.93;;;;;;;29.34;64.63;100470.66;5569875;32;33747;-57
2023/08/23 09:27:58;;;;;;;12.88;10.25;;;;;;;29.40;63.48;100471.78;5569500;32;34388;-58
2023/08/23 09:31:01;;;;;;;14.13;10.02;;;;;;;29.48;63.31;100468.56;5568622;32;33616;-58
2023/08/23 09:34:10;;;;;;;11.40;9.70;;;;;;;29.51;62.72;100475.25;5569574;32;33269;-57
2023/08/23 09:37:13;;;;;;;11.60;9.52;;;;;;;29.65;60.28;100466.88;5568458;32;33488;-57
2023/08/23 09:40:22;;;;;;;13.00;10.20;;;;;;;29.62;61.84;100469.66;5569414;32;33745;-57
2023/08/23 09:43:29;;;;;;;10.38;8.30;;;;;;;29.66;62.71;100462.12;5569008;32;34294;-57
2023/08/23 09:46:37;;;;;;;10.10;8.98;;;;;;;29.74;58.68;100455.34;5569149;32;34258;-57
2023/08/23 09:49:42;;;;;;;12.63;9.45;;;;;;;29.90;58.22;100455.59;5569628;32;33692;-57
2023/08/23 09:52:50;;;;;;;10.10;9.02;;;;;;;29.94;59.28;100453.56;5568844;32;33828;-57
2023/08/23 09:55:53;;;;;;;12.80;8.52;;;;;;;29.99;58.60;100454.31;5568789;32;33928;-57
2023/08/23 09:58:56;;;;;;;11.43;9.13;;;;;;;30.00;57.82;100456.69;5569625;32;34448;-58
2023/08/23 10:02:01;;;;;;;12.82;8.98;;;;;;;30.12;58.16;100461.66;5554943;32;34293;-57
2023/08/23 10:05:06;;;;;;;11.68;8.82;;;;;;;30.18;57.69;100467.53;5568813;32;34303;-57
2023/08/23 10:08:10;;;;;;;10.10;9.10;;;;;;;30.32;54.83;100464.63;5568980;32;33307;-57
2023/08/23 10:11:14;;;;;;;9.73;8.35;;;;;;;30.32;57.50;100461.84;5569181;32;33935;-57
2023/08/23 10:14:17;;;;;;;10.40;8.38;;;;;;;30.34;56.53;100470.53;5568209;32;34279;-58
2023/08/23 10:17:21;;;;;;;10.93;8.50;;;;;;;30.38;56.12;100462.19;5551561;32;33727;-57
2023/08/23 10:20:27;;;;;;;12.45;9.00;;;;;;;30.39;55.19;100469.28;5558325;32;34219;-58
2023/08/23 10:23:33;;;;;;;9.95;9.02;;;;;;;30.48;55.33;100454.97;5569123;32;34364;-58
2023/08/23 10:26:46;;;;;;;;;;;;;;;30.46;55.67;100457.34;5567888;32;35241;-57
2023/08/23 10:29:50;;;;;;;11.18;8.93;;;;;;;30.41;56.85;100451.09;5568504;32;34039;-57
2023/08/23 10:32:53;;;;;;;10.52;9.40;;;;;;;30.44;54.94;100457.78;5568353;32;33442;-57
2023/08/23 10:35:56;;;;;;;10.13;8.97;;;;;;;30.44;55.70;100457.78;5563204;32;33446;-58
2023/08/23 10:38:59;;;;;;;11.05;9.95;;;;;;;30.41;55.31;100451.09;5568225;32;33709;-57
2023/08/23 10:42:02;;;;;;;16.35;9.48;;;;;;;30.32;56.23;100463.84;5569229;32;33635;-57
2023/08/23 10:45:05;;;;;;;13.68;9.30;;;;;;;30.28;55.01;100458.34;5564221;32;33759;-57
2023/08/23 10:48:08;;;;;;;10.60;9.18;;;;;;;30.29;55.67;100453.59;5549779;32;33870;-57
2023/08/23 10:51:15;;;;;;;18.98;10.05;;;;;;;30.30;57.55;100453.22;5548957;32;33752;-58
2023/08/23 10:54:18;;;;;;;13.48;9.75;;;;;;;30.47;55.71;100443.13;5549111;32;33605;-57
2023/08/23 10:57:20;;;;;;;11.75;9.68;;;;;;;30.52;56.20;100439.09;5567264;32;34311;-57
2023/08/23 11:00:23;;;;;;;12.77;9.70;;;;;;;30.47;57.58;100445.88;5568943;32;33660;-57
2023/08/23 11:03:28;;;;;;;10.73;9.63;;;;;;;30.55;55.56;100444.56;5568602;32;33771;-57
2023/08/23 11:06:31;;;;;;;14.50;9.88;;;;;;;30.59;55.94;100439.00;5567494;32;34267;-58
2023/08/23 11:09:35;;;;;;;15.55;9.20;;;;;;;30.56;55.92;100439.81;5567818;32;34088;-57
2023/08/23 11:12:38;;;;;;;10.73;9.50;;;;;;;30.53;55.84;100426.81;5556959;32;34542;-57
2023/08/23 11:15:44;;;;;;;12.10;10.30;;;;;;;30.50;55.68;100427.66;5568750;32;33715;-57
2023/08/23 11:18:46;;;;;;;11.25;9.90;;;;;;;30.66;55.19;100428.62;5568195;32;33823;-57
2023/08/23 11:21:49;;;;;;;12.45;9.40;;;;;;;30.65;55.86;100431.81;5567672;32;33735;-57
2023/08/23 11:24:52;;;;;;;12.35;9.25;;;;;;;30.69;55.37;100423.44;5562901;32;33755;-57
2023/08/23 11:27:54;;;;;;;11.95;10.05;;;;;;;30.84;54.42;100414.56;5567125;32;33763;-58
2023/08/23 11:31:06;;;;;;;11.77;8.70;;;;;;;30.78;56.44;100416.22;5565855;32;34379;-57
2023/08/23 11:34:09;;;;;;;11.27;9.25;;;;;;;30.82;54.29;100418.94;5568158;32;33532;-57
2023/08/23 11:37:12;;;;;;;15.07;12.98;;;;;;;30.99;54.33;100420.66;5566900;32;34325;-58
2023/08/23 11:40:15;;;;;;;12.82;9.80;;;;;;;31.03;54.56;100415.09;5553636;32;33604;-58
2023/08/23 11:43:17;;;;;;;12.75;9.30;;;;;;;31.12;53.35;100415.31;5548808;32;33317;-57
2023/08/23 11:46:24;;;;;;;10.65;9.60;;;;;;;31.05;52.72;100407.13;5565418;32;33871;-57
2023/08/23 11:49:27;;;;;;;11.45;9.20;;;;;;;30.89;53.46;100405.00;5568831;32;33651;-58
2023/08/23 11:52:30;;;;;;;12.57;9.02;;;;;;;30.78;54.99;100405.16;5568595;32;33730;-58
2023/08/23 11:55:34;;;;;;;11.93;8.55;;;;;;;30.70;55.15;100414.75;5567264;32;34398;-58
2023/08/23 11:58:36;;;;;;;12.65;10.77;;;;;;;30.60;55.06;100415.69;5554454;32;33705;-57
2023/08/23 12:01:39;;;;;;;10.35;9.35;;;;;;;30.56;56.26;100407.44;5555911;32;34447;-57
2023/08/23 12:04:42;;;;;;;12.13;10.45;;;;;;;30.55;59.29;100414.16;5568405;32;33725;-57
2023/08/23 12:07:47;;;;;;;12.30;9.77;;;;;;;30.54;58.11;100412.59;5563101;32;33450;-57
2023/08/23 12:10:51;;;;;;;12.93;9.75;;;;;;;30.46;57.22;100416.63;5548602;32;34442;-57
2023/08/23 12:13:53;;;;;;;11.35;9.07;;;;;;;30.51;56.53;100418.19;5556101;32;33700;-57
2023/08/23 12:16:56;;;;;;;14.00;9.40;;;;;;;30.53;56.78;100419.34;5565445;32;33295;-58
2023/08/23 12:19:58;;;;;;;11.05;9.02;;;;;;;30.62;55.92;100418.81;5568331;32;33891;-57
2023/08/23 12:23:01;;;;;;;13.55;9.20;;;;;;;30.67;56.02;100416.37;5568158;32;34300;-57
2023/08/23 12:26:03;;;;;;;11.43;9.02;;;;;;;30.71;56.40;100413.53;5568191;32;33703;-58
2023/08/23 12:29:06;;;;;;;11.38;9.43;;;;;;;30.75;54.95;100408.72;5568444;32;33630;-58
2023/08/23 12:32:08;;;;;;;11.65;9.20;;;;;;;30.81;55.93;100412.63;5568743;32;34259;-59
2023/08/23 12:35:10;;;;;;;11.60;8.82;;;;;;;30.83;55.62;100406.69;5569544;32;34652;-57
2023/08/23 12:38:13;;;;;;;11.43;8.55;;;;;;;30.80;56.21;100402.00;5570460;32;33673;-57
2023/08/23 12:41:15;;;;;;;13.90;8.80;;;;;;;30.79;54.98;100405.94;5570454;32;34403;-57
2023/08/23 12:44:18;;;;;;;9.77;7.80;;;;;;;30.75;55.63;100411.50;5570120;32;34385;-57
2023/08/23 12:47:21;;;;;;;10.98;8.57;;;;;;;30.73;55.42;100405.63;5570217;32;33582;-57
2023/08/23 12:50:23;;;;;;;11.45;7.78;;;;;;;30.82;56.33;100402.34;5570303;32;33576;-57
2023/08/23 12:53:25;;;;;;;9.02;8.02;;;;;;;30.84;53.14;100397.19;5569927;32;33397;-57
2023/08/23 12:56:28;;;;;;;10.70;7.50;;;;;;;30.82;52.88;100396.81;5570259;32;33730;-57
2023/08/23 12:59:30;;;;;;;10.60;7.90;;;;;;;30.76;52.50;100387.38;5570334;32;33799;-58
2023/08/23 13:02:32;;;;;;;13.50;7.07;;;;;;;30.75;52.68;100383.81;5569793;32;33668;-57
2023/08/23 13:05:35;;;;;;;13.20;7.72;;;;;;;30.71;54.44;100382.31;5569740;32;34272;-58
2023/08/23 13:08:38;;;;;;;10.30;7.30;;;;;;;30.73;52.71;100374.38;5570181;32;33340;-57
2023/08/23 13:11:41;;;;;;;11.20;7.50;;;;;;;30.67;54.42;100374.84;5570039;32;33718;-57
2023/08/23 13:14:44;;;;;;;11.30;8.52;;;;;;;30.70;54.34;100366.94;5569658;32;33673;-57
2023/08/23 13:17:46;;;;;;;16.15;8.02;;;;;;;30.68;55.86;100375.63;5569955;32;33777;-57
2023/08/23 13:20:49;;;;;;;11.60;7.68;;;;;;;30.67;55.43;100376.84;5565075;32;33860;-57
2023/08/23 13:23:52;;;;;;;13.35;7.65;;;;;;;30.74;54.81;100368.44;5569832;32;33599;-57
2023/08/23 13:26:55;;;;;;;13.27;7.90;;;;;;;30.68;55.44;100367.34;5569515;32;34021;-57
2023/08/23 13:29:58;;;;;;;8.98;7.78;;;;;;;30.63;56.94;100371.38;5563134;32;33579;-57
2023/08/23 13:33:00;;;;;;;10.18;8.00;;;;;;;30.64;55.41;100363.84;5568969;32;33652;-57
2023/08/23 13:36:03;;;;;;;10.77;7.82;;;;;;;30.66;54.12;100361.41;5568081;32;33785;-57
2023/08/23 13:39:05;;;;;;;11.88;7.93;;;;;;;30.83;52.58;100354.88;5560471;32;34530;-58
2023/08/23 13:42:08;;;;;;;9.75;7.37;;;;;;;30.83;54.01;100352.13;5567419;32;33629;-57
2023/08/23 13:45:10;;;;;;;10.10;7.93;;;;;;;30.77;55.33;100350.25;5569144;32;33857;-58
2023/08/23 13:48:13;;;;;;;11.25;7.97;;;;;;;30.79;54.43;100351.38;5565322;32;33642;-57
2023/08/23 13:51:15;;;;;;;8.57;7.68;;;;;;;30.80;54.33;100357.72;5565654;32;34379;-57
2023/08/23 13:54:18;;;;;;;8.63;7.43;;;;;;;30.77;55.58;100358.56;5569074;32;33559;-57
2023/08/23 13:57:20;;;;;;;10.23;7.37;;;;;;;30.83;52.91;100352.13;5563746;32;34387;-57
2023/08/23 14:00:23;;;;;;;16.67;7.37;;;;;;;30.78;52.61;100365.63;5569525;32;34306;-58
2023/08/23 14:03:25;;;;;;;22.52;6.97;;;;;;;30.77;52.20;100362.09;5568999;32;33821;-57
2023/08/23 14:06:28;;;;;;;10.98;7.03;;;;;;;30.74;51.30;100367.66;5569600;32;34054;-58
2023/08/23 14:09:30;;;;;;;12.90;7.12;;;;;;;30.73;52.72;100368.84;5569546;32;33660;-57
2023/08/23 14:12:33;;;;;;;7.50;6.72;;;;;;;30.77;53.59;100377.91;5569402;32;34187;-57
2023/08/23 14:15:35;;;;;;;10.52;6.28;;;;;;;30.78;53.10;100376.72;5567779;32;34366;-58
2023/08/23 14:18:37;;;;;;;9.77;6.68;;;;;;;30.76;50.85;100382.69;5567723;32;34309;-57
2023/08/23 14:21:40;;;;;;;8.35;5.55;;;;;;;30.78;51.49;100382.25;5569050;32;33595;-57
2023/08/23 14:24:42;;;;;;;10.00;6.35;;;;;;;30.79;50.97;100383.78;5566602;32;34368;-57
2023/08/23 14:27:45;;;;;;;14.90;6.28;;;;;;;30.80;51.66;100377.09;5569102;32;34365;-57
2023/08/23 14:30:48;;;;;;;10.68;6.55;;;;;;;30.81;50.44;100376.66;5564844;31;34264;-57
2023/08/23 14:33:50;;;;;;;8.15;6.28;;;;;;;30.80;50.51;100380.63;5568602;32;33787;-57
2023/08/23 14:36:53;;;;;;;7.53;5.65;;;;;;;30.80;50.71;100375.09;5564831;32;33652;-57
2023/08/23 14:39:55;;;;;;;7.70;5.75;;;;;;;30.96;49.91;100370.88;5567930;32;33676;-57
2023/08/23 14:42:57;;;;;;;7.28;5.37;;;;;;;30.91;50.64;100382.44;5568659;32;33929;-57
2023/08/23 14:46:00;;;;;;;10.07;5.25;;;;;;;30.89;49.03;100375.34;5568856;32;33661;-57
2023/08/23 14:49:02;;;;;;;6.55;5.32;;;;;;;30.97;48.25;100372.47;5568511;32;34304;-57
2023/08/23 14:52:06;;;;;;;6.43;5.00;;;;;;;31.06;47.08;100381.81;5568173;32;33904;-57
2023/08/23 14:55:10;;;;;;;9.90;5.53;;;;;;;30.99;46.98;100375.59;5568598;32;33573;-57
